Aviation Digital Data Service (ADDS)

Output produced by METARs form (2337 UTC 22 July 2014)
found at http://www.aviationweather.gov/adds/metars/
 
KBFD 222253Z AUTO 23006KT 10SM CLR 27/17 A3010 RMK AO2 SLP176 T02720172
KBFD 222153Z AUTO VRB03KT 10SM FEW049 28/17 A3010 RMK AO2 SLP177 T02830167
KBFD 222053Z AUTO 21006KT 10SM SCT047 28/17 A3010 RMK AO2 SLP178 T02780167 56012
KBFD 221953Z AUTO 26009KT 10SM SCT047 28/17 A3011 RMK AO2 SLP180 T02830167
KBFD 221853Z AUTO 22008KT 10SM FEW042 FEW050 SCT060 28/17 A3013 RMK AO2 SLP185 T02780167
KBFD 221753Z AUTO 21008KT 10SM CLR 28/18 A3014 RMK AO2 SLP189 T02830178 10283 20200 58018
KBFD 221653Z AUTO 20009KT 10SM BKN036 27/18 A3016 RMK AO2 SLP197 T02670183
KBFD 221553Z AUTO VRB04KT 10SM CLR 26/19 A3018 RMK AO2 SLP204 T02560189
KBFD 221526Z AUTO VRB03KT 10SM FEW020 SCT042 24/19 A3019 RMK AO2 T02440194
KBFD 221453Z AUTO 18006KT 10SM SCT017 BKN024 BKN030 24/19 A3020 RMK AO2 SLP209 T02440194 58006
KBFD 221438Z AUTO 16003KT 10SM BKN015 BKN026 23/19 A3020 RMK AO2 T02330194
KBFD 221353Z AUTO 21003KT 9SM BKN010 22/19 A3020 RMK AO2 SLP212 T02220194
KBFD 221321Z AUTO 12004KT 7SM OVC006 21/19 A3021 RMK AO2 CIG 003V009 T02060194
KBFD 221309Z AUTO 14004KT 6SM BR OVC004 20/19 A3021 RMK AO2 CIG 002V008 T02000194
KBFD 221253Z AUTO 16003KT 4SM BR OVC002 20/19 A3021 RMK AO2 CIG 001V005 SLP216 T02000194
KBFD 221245Z AUTO 13003KT 4SM BR OVC002 20/19 A3021 RMK AO2 T02000189
KBFD 221235Z AUTO 17003KT 2SM BR OVC002 19/19 A3022 RMK AO2 T01940189
KBFD 221228Z AUTO 00000KT 3/4SM BR VV002 19/19 A3022 RMK AO2 T01940189
KBFD 221153Z AUTO 12003KT M1/4SM FG VV001 18/18 A3022 RMK AO2 SLP217 T01830178 10189 20150 52006
KBFD 221053Z AUTO 12003KT 1/4SM FG VV001 17/16 A3021 RMK AO2 SLP216 T01670161
KBFD 220953Z AUTO 00000KT 1/4SM FG VV001 16/15 A3020 RMK AO2 SLP213 T01560150
KBFD 220911Z AUTO 00000KT 1/4SM FG VV002 16/15 A3020 RMK AO2 T01560150
KBFD 220853Z AUTO 00000KT 1/4SM FG VV003 16/16 A3020 RMK AO2 SLP210 T01610156 55002
KBFD 220753Z AUTO 00000KT 1/4SM FG VV004 17/17 A3019 RMK AO2 SLP209 T01720167
KBFD 220746Z AUTO 00000KT 1/4SM FG VV004 17/17 A3019 RMK AO2 T01720167
KBFD 220734Z AUTO 00000KT 1/4SM FG VV006 18/17 A3019 RMK AO2 T01780167
KBFD 220724Z AUTO 00000KT 1 3/4SM BR BKN006 BKN018 18/17 A3019 RMK AO2 VIS 1/2V5 T01830172
KBFD 220717Z AUTO 00000KT 3SM BR BKN008 BKN018 18/17 A3019 RMK AO2 T01830172
KBFD 220653Z AUTO 00000KT 5SM BR FEW010 BKN018 18/17 A3019 RMK AO2 SLP207 T01830172 TSNO
KBFD 220607Z AUTO 00000KT 6SM BR FEW009 SCT019 BKN025 19/18 A3020 RMK AO2 T01890178
KBFD 220600Z AUTO 00000KT 7SM FEW009 SCT018 BKN035 19/18 A3020 RMK AO2 T01890178
KBFD 220553Z AUTO 00000KT 6SM BR FEW009 SCT020 BKN025 19/17 A3020 RMK AO2 SLP212 T01890172 10233 20178 56001
KBFD 220544Z AUTO 00000KT 5SM BR FEW009 BKN020 OVC027 18/17 A3020 RMK AO2 T01830172
KBFD 220530Z AUTO 00000KT 5SM BR SCT012 OVC019 18/17 A3020 RMK AO2 T01830172
KBFD 220514Z AUTO 00000KT 4SM BR BKN012 BKN017 18/17 A3021 RMK AO2 T01780172
KBFD 220509Z AUTO 00000KT 2SM BR SCT012 BKN017 18/17 A3020 RMK AO2 T01830172
KBFD 220501Z AUTO 00000KT 3SM BR SCT016 18/17 A3021 RMK AO2 T01830172
KBFD 220453Z AUTO 00000KT 4SM BR BKN014 18/17 A3021 RMK AO2 SLP213 T01830172 402670133
KBFD 220424Z AUTO 00000KT 4SM BR BKN014 19/18 A3021 RMK AO2 T01890178
KBFD 220353Z AUTO 00000KT 5SM BR SCT023 19/18 A3020 RMK AO2 SLP212 T01890178
KBFD 220253Z AUTO 00000KT 8SM OVC022 20/18 A3021 RMK AO2 SLP214 T02000183 51009
KBFD 220234Z AUTO 00000KT 7SM BKN022 20/18 A3021 RMK AO2 T02000183
KBFD 220203Z AUTO 00000KT 9SM SCT024 BKN037 BKN047 22/18 A3021 RMK AO2 T02170183
KBFD 220153Z AUTO 00000KT 8SM BKN024 BKN048 BKN060 21/18 A3021 RMK AO2 SLP213 T02110183
KBFD 220141Z AUTO 00000KT 8SM BKN026 BKN030 OVC050 21/18 A3020 RMK AO2 T02110183
KBFD 220053Z AUTO 20003KT 9SM FEW036 22/18 A3019 RMK AO2 SLP207 T02220183
KBFD 212353Z AUTO 00000KT 10SM FEW047 SCT090 23/18 A3018 RMK AO2 SLP204 T02330183 10267 20233 51003
KBFD 212253Z AUTO 19003KT 10SM FEW039 BKN048 OVC085 24/18 A3018 RMK AO2 SLP205 T02440183
KBFD 212153Z AUTO 17004KT 10SM FEW043 SCT090 25/18 A3017 RMK AO2 SLP204 T02500178
KBFD 212053Z AUTO VRB03KT 10SM BKN033 26/18 A3017 RMK AO2 SLP202 T02610178 56009
KBFD 211953Z AUTO 10003KT 10SM BKN030 OVC075 25/18 A3018 RMK AO2 SLP205 T02500178
KBFD 211853Z AUTO VRB03KT 10SM FEW032 SCT047 SCT055 26/17 A3019 RMK AO2 SLP207 T02560172
KBFD 211753Z AUTO 19006KT 10SM FEW029 SCT037 SCT047 25/17 A3020 RMK AO2 SLP211 T02500172 10256 20178 58003
KBFD 211653Z AUTO 21005KT 10SM SCT029 BKN039 BKN047 25/17 A3020 RMK AO2 SLP213 T02500172
KBFD 211620Z AUTO 19006KT 10SM FEW025 BKN030 BKN045 24/17 A3021 RMK AO2 T02390172
KBFD 211553Z AUTO 17006KT 10SM FEW021 OVC027 23/17 A3021 RMK AO2 SLP215 T02330172
KBFD 211534Z AUTO 18007KT 10SM BKN022 BKN028 23/17 A3020 RMK AO2 T02330172
KBFD 211512Z AUTO 18006KT 10SM FEW022 SCT028 BKN070 23/17 A3021 RMK AO2 T02280167
KBFD 211453Z AUTO 20005KT 10SM SCT018 BKN024 22/17 A3021 RMK AO2 SLP218 T02220172 50000
KBFD 211427Z AUTO 19004KT 10SM BKN016 22/17 A3021 RMK AO2 T02170167
KBFD 211353Z AUTO 17004KT 10SM BKN013 BKN055 OVC075 22/17 A3021 RMK AO2 SLP219 T02170172
KBFD 211253Z AUTO 13003KT 10SM FEW055 BKN075 20/17 A3022 RMK AO2 SLP220 T02000167
KBFD 211153Z AUTO 13003KT 7SM BKN075 18/16 A3021 RMK AO2 SLP218 T01780161 10178 20133 53014